George Bush Intercontinental Houston Airport
KIAH : now visible

Airfield :











YOU CAN JOIN US ON...

 
LOGIN :

Register | Disclaimer

   EN    FR    IT 

 









Legend :    VFR   Marginal VFR   IFR   Intensive IFR   Very Intensive IFR
Visi :
Ceiling :
>= 8 km
>= 3000ft
5 to 8 km
1000 to 3000 ft
1500m to 5 km
500 to 1000 ft
800 to 1500m
200 to 500 ft
< 800m
< 200 ft
Symbols :   Thunderstorms  Fog  Heavy snow  Heavy precipitations  Wind > 20 kt







- Airport Elevation : 97 ft
- IATA code : IAH


KIAH - George Bush Intercontinental Houston

CURRENT METAR :
  • 190853Z 17003KT 10SM FEW020 28/25 A2994 RMK AO2 SLP138 T02780250 53000 $

EXPIRED METARs :
  • 190753Z 18003KT 10SM FEW018 27/25 A2994 RMK AO2 SLP136 T02720250 $
  • 190653Z 18003KT 10SM FEW020 27/24 A2994 RMK AO2 SLP139 T02720244 $

TAF KIAH
Valid from the 19 at 09:00 until the 20 at 12:00 UTC


190858Z 1909/2012 VRB04KT P6SM SCT020
FM191500 20007KT P6SM BKN035
FM191700 18008KT P6SM VCSH SCT045
FM192300 15010KT P6SM FEW050
FM200400 VRB04KT P6SM FEW025
No reported NOTAMs for that airfield.



MET'MAP, your aeronautical weather chart ! - Copyright ORBIFLY December 2007 - Disclaimer

ORBIFLY MET'MAP TEAM :

Programming & Development : Alexandra Zaïnal
Concept & Development : Baudouin d'Aumeries
Co-Development & Prog : Marc-Olivier Méhu
Technical & hardware support : Manuel Goepfert

Contact : metmap@orbifly.com




SOURCES & CREDITS :

   NOAA       Earth
Advisory